Malaysia Virtual Airlines Airport Information Service

Auckland International Airport

ICAO: NZAA Country: New Zealand
Latitude: -37.0081 Longitude: 174.792
Latest Arrival : MH145 (WMKK-NZAA) Latest Departure : MH144 (NZAA-WMKK)


WX CaptureLIVE
Data provided by noaa.gov | Fetched at 05:51:45

METAR : NZAA 290530Z AUTO 23011KT 9999 NCD 21/15 Q1020 NOSIG

TAF : NZAA 282306Z 2900/3000 24010KT 9999 FEW020 SCT030 BECMG 2907/2909 VRB02KT BECMG 2922/3000 24010KT


Runway Data for NZAA
Data provided by openaviationdata.com

Runway ID Mag Var Hdg Length Elevation Surface ILS Freq ILS Id ILS Slope
05R 20 50° 11925 ft 23 ft Concrete 110.3 IAA 3
23L 20 230° 11925 ft 23 ft Concrete 109.9 IMG 3

Auckland International Airport, New Zealand
Use only for reference purposes



Not for navigational purposes.